McClanahan, Texas
Current Conditions -  °F | °C
As of 6:55 AM on Sunday 23 Nov 2014 (Local Time) from KCNW Reporting Station
Clear Clear  
Wind Chill: 55°   Ceiling: Unl
Heat Index: 55°   Visibility: 10mi
Dew Point: 55°   Wind: 6mph
Humidity: 100%   Direction: 200°SSW
Pressure: 29.63"   Gusts: NA
Location:  31.3313°N, 96.8629°W
Report Text: KCNW 231255Z 20005KT 10SM SKC 13/13 A2963
Loading
Personal Weather Stations






























Interactive Weather Map New forecast layout! Learn more

10-Day Weather Forecast

Advertisements
Track Severe Weather on mobile